Time;durP1;ratioP1;P1;durP2;ratioP2;P2;SDS_P1;SDS_P2;PMS_P1;PMS_P2;Temp;Humidity;BMP_temperature;BMP_pressure;BME280_temperature;BME280_humidity;BME280_pressure;Samples;Min_cycle;Max_cycle;Signal;HPM_P1;HPM_P2
2022/08/11 00:01:51;;;;;;;0.57;0.43;;;16.50;99.90;;;;;;4992910;28;20029;-75
2022/08/11 00:04:18;;;;;;;0.73;0.73;;;16.50;99.90;;;;;;4994610;28;20664;-75
2022/08/11 00:06:45;;;;;;;0.80;0.80;;;16.40;99.90;;;;;;4994511;28;20030;-75
2022/08/11 00:09:15;;;;;;;1.15;0.80;;;16.40;99.90;;;;;;4992414;28;20038;-74
2022/08/11 00:11:48;;;;;;;0.82;0.82;;;16.30;99.90;;;;;;4992002;28;20184;-75
2022/08/11 00:14:19;;;;;;;1.33;0.57;;;16.30;99.90;;;;;;5001002;28;20030;-75
2022/08/11 00:17:00;;;;;;;1.02;0.52;;;16.20;99.90;;;;;;4998989;28;20038;-75
2022/08/11 00:19:29;;;;;;;1.25;0.80;;;16.20;99.90;;;;;;4988268;28;20514;-75
2022/08/11 00:21:56;;;;;;;2.58;1.00;;;16.20;99.90;;;;;;4990616;28;20114;-75
2022/08/11 00:24:23;;;;;;;1.00;0.75;;;16.10;99.90;;;;;;4994647;28;20040;-75
2022/08/11 00:26:51;;;;;;;1.10;1.00;;;16.10;99.90;;;;;;4997927;28;20050;-75
2022/08/11 00:29:18;;;;;;;0.60;0.60;;;16.10;99.90;;;;;;4993453;28;20115;-74
2022/08/11 00:31:51;;;;;;;1.10;0.75;;;16.10;99.90;;;;;;4993159;28;20031;-75
2022/08/11 00:34:22;;;;;;;1.50;0.88;;;16.00;99.90;;;;;;4994426;28;20025;-75
2022/08/11 00:37:02;;;;;;;1.07;0.93;;;16.00;99.90;;;;;;4996056;28;20033;-75
2022/08/11 00:39:30;;;;;;;1.92;0.90;;;15.90;99.90;;;;;;4994445;28;20389;-75
2022/08/11 00:42:10;;;;;;;0.63;0.63;;;15.90;99.90;;;;;;4992709;28;20035;-74
2022/08/11 00:45:01;;;;;;;1.42;0.77;;;15.90;99.90;;;;;;4993290;28;20091;-74
2022/08/11 00:47:55;;;;;;;0.80;0.75;;;15.80;99.90;;;;;;4991469;28;20120;-74
2022/08/11 00:50:29;;;;;;;0.70;0.70;;;15.80;99.90;;;;;;4988767;28;20408;-74
2022/08/11 00:53:27;;;;;;;1.08;0.80;;;15.80;99.90;;;;;;4999126;28;20160;-75
2022/08/11 00:56:09;;;;;;;1.40;1.15;;;15.70;99.90;;;;;;4991604;28;20050;-74
2022/08/11 00:59:11;;;;;;;0.85;0.85;;;15.70;99.90;;;;;;4996477;28;20358;-75
2022/08/11 01:01:47;;;;;;;1.00;0.82;;;15.60;99.90;;;;;;4974344;28;20362;-75
2022/08/11 01:04:41;;;;;;;1.08;0.80;;;15.60;99.90;;;;;;4992343;28;20030;-75
2022/08/11 01:07:45;;;;;;;0.77;0.77;;;15.50;99.90;;;;;;4994825;28;20172;-74
2022/08/11 01:10:23;;;;;;;1.17;0.98;;;15.50;99.90;;;;;;5007248;28;20384;-75
2022/08/11 01:13:07;;;;;;;0.77;0.65;;;15.50;99.90;;;;;;4996953;28;20041;-76
2022/08/11 01:16:05;;;;;;;0.60;0.60;;;15.50;99.90;;;;;;4990669;28;20619;-75
2022/08/11 01:18:39;;;;;;;0.77;0.77;;;15.50;99.90;;;;;;4998099;28;20555;-75
2022/08/11 01:21:43;;;;;;;0.40;0.40;;;15.50;99.90;;;;;;5002645;28;20220;-75
2022/08/11 01:24:45;;;;;;;0.80;0.70;;;15.40;99.90;;;;;;4998723;28;20040;-75
2022/08/11 01:27:40;;;;;;;1.23;0.90;;;15.30;99.90;;;;;;4996163;28;21094;-75
2022/08/11 01:30:44;;;;;;;1.08;0.80;;;15.30;99.90;;;;;;4995681;28;20037;-76
2022/08/11 01:33:49;;;;;;;2.03;0.88;;;15.30;99.90;;;;;;4957270;28;20030;-75
2022/08/11 01:36:47;;;;;;;1.08;0.80;;;15.20;99.90;;;;;;4991683;28;20515;-76
2022/08/11 01:39:41;;;;;;;0.80;0.80;;;15.20;99.90;;;;;;4991586;28;20062;-76
2022/08/11 01:45:45;;;;;;;0.90;0.77;;;15.20;99.90;;;;;;5000609;28;20061;-76
2022/08/11 01:48:29;;;;;;;1.35;0.98;;;15.10;99.90;;;;;;4994559;28;20130;-75
2022/08/11 01:51:16;;;;;;;0.93;0.65;;;15.10;99.90;;;;;;5000070;28;20105;-76
2022/08/11 01:53:52;;;;;;;1.42;0.80;;;15.10;99.90;;;;;;4993582;28;20397;-76
2022/08/11 01:56:43;;;;;;;1.02;0.82;;;15.10;99.90;;;;;;5001473;28;20493;-76
2022/08/11 01:59:24;;;;;;;0.68;0.68;;;15.00;99.90;;;;;;5000565;28;20109;-76
2022/08/11 02:02:04;;;;;;;1.20;0.68;;;15.10;99.90;;;;;;4997706;28;20033;-76
2022/08/11 02:04:46;;;;;;;2.38;1.00;;;15.00;99.90;;;;;;5001046;28;20053;-75
2022/08/11 02:07:29;;;;;;;0.45;0.45;;;14.90;99.90;;;;;;5000908;28;20061;-75
2022/08/11 02:13:36;;;;;;;1.17;0.82;;;14.80;99.90;;;;;;4998965;28;20401;-75
2022/08/11 02:16:12;;;;;;;0.80;0.65;;;14.80;99.90;;;;;;5006211;28;20032;-75
2022/08/11 02:24:32;;;;;;;2.13;0.95;;;14.80;99.90;;;;;;4991833;28;20033;-76
2022/08/11 02:27:13;;;;;;;0.82;0.70;;;14.70;99.90;;;;;;4996103;28;20057;-75
2022/08/11 02:29:52;;;;;;;0.82;0.55;;;14.60;99.90;;;;;;4997859;28;20030;-76
2022/08/11 02:35:41;;;;;;;0.70;0.70;;;14.70;99.90;;;;;;4997373;28;20084;-75
2022/08/11 02:38:10;;;;;;;1.90;0.90;;;14.60;99.90;;;;;;4996633;28;20117;-75
2022/08/11 02:40:52;;;;;;;1.13;0.88;;;14.60;99.90;;;;;;4987305;28;20029;-75
2022/08/11 02:43:28;;;;;;;2.72;0.85;;;14.60;99.90;;;;;;4998703;28;20022;-75
2022/08/11 02:46:18;;;;;;;2.03;1.02;;;14.50;99.90;;;;;;4995438;28;20109;-75
2022/08/11 02:52:00;;;;;;;1.80;1.02;;;14.40;99.90;;;;;;4997385;28;20048;-75
2022/08/11 02:54:31;;;;;;;0.90;0.82;;;14.40;99.90;;;;;;4993568;28;20030;-75
2022/08/11 02:57:00;;;;;;;;;;;14.40;99.90;;;;;;4998502;28;20042;-74
2022/08/11 02:59:50;;;;;;;1.15;1.05;;;14.40;99.90;;;;;;5001809;28;19916;-74
2022/08/11 03:02:30;;;;;;;0.73;0.70;;;14.30;99.90;;;;;;4995040;28;20029;-75
2022/08/11 03:05:10;;;;;;;1.55;0.82;;;14.30;99.90;;;;;;4994101;28;20033;-74
2022/08/11 03:07:39;;;;;;;0.73;0.73;;;14.30;99.90;;;;;;5000887;28;20037;-75
2022/08/11 03:10:24;;;;;;;1.58;0.65;;;14.30;99.90;;;;;;5000759;28;20084;-75
2022/08/11 03:19:29;;;;;;;1.95;1.45;;;14.10;99.90;;;;;;4999582;28;20041;-74
2022/08/11 03:22:16;;;;;;;1.15;0.80;;;14.10;99.90;;;;;;4993300;28;20029;-74
2022/08/11 03:24:53;;;;;;;0.95;0.93;;;14.10;99.90;;;;;;4994020;28;20111;-75
2022/08/11 03:27:30;;;;;;;0.93;0.88;;;14.10;99.90;;;;;;5001191;28;20159;-74
2022/08/11 03:30:16;;;;;;;1.20;1.10;;;14.10;99.90;;;;;;4996988;28;20488;-76
2022/08/11 03:35:53;;;;;;;1.20;0.90;;;14.10;99.90;;;;;;4991376;28;20088;-75
2022/08/11 03:38:26;;;;;;;1.95;1.13;;;14.10;99.90;;;;;;4994796;28;20034;-75
2022/08/11 03:44:23;;;;;;;1.55;0.85;;;14.10;99.90;;;;;;4998663;28;20088;-75
2022/08/11 03:47:23;;;;;;;1.00;0.90;;;14.00;99.90;;;;;;4992080;28;20492;-75
2022/08/11 03:50:23;;;;;;;0.70;0.57;;;14.10;99.90;;;;;;4993876;28;20749;-75
2022/08/11 03:53:26;;;;;;;1.75;0.85;;;14.00;99.90;;;;;;4999070;28;20030;-75
2022/08/11 03:56:20;;;;;;;1.38;0.75;;;14.00;99.90;;;;;;4989370;28;20094;-76
2022/08/11 03:59:22;;;;;;;0.93;0.82;;;14.00;99.90;;;;;;4996148;28;20033;-75
2022/08/11 04:02:25;;;;;;;1.23;0.98;;;14.00;99.90;;;;;;4966361;28;20061;-76
2022/08/11 04:05:27;;;;;;;1.70;0.93;;;14.10;99.90;;;;;;4995602;28;20061;-76
2022/08/11 04:08:04;;;;;;;1.42;1.20;;;14.10;99.90;;;;;;4999883;28;20673;-76
2022/08/11 04:11:06;;;;;;;3.95;0.77;;;14.00;99.90;;;;;;4990493;28;20243;-76
2022/08/11 04:15:58;;;;;;;1.55;1.05;;;14.10;99.90;;;;;;4996085;28;20072;-75
2022/08/11 04:17:35;;;;;;;0.90;0.68;;;14.10;99.90;;;;;;4986340;28;20576;-75
2022/08/11 04:20:17;;;;;;;7.00;0.98;;;14.10;99.90;;;;;;4996510;28;20030;-76
2022/08/11 04:23:10;;;;;;;1.27;0.82;;;14.10;99.90;;;;;;4993493;28;20048;-75
2022/08/11 04:25:53;;;;;;;1.90;1.08;;;14.10;99.90;;;;;;4998844;28;20037;-75
2022/08/11 04:28:50;;;;;;;5.57;1.08;;;14.10;99.90;;;;;;4998270;28;20492;-75
2022/08/11 04:31:36;;;;;;;1.38;0.80;;;14.20;99.90;;;;;;4995629;28;20132;-75
2022/08/11 04:34:35;;;;;;;1.92;1.10;;;14.20;99.90;;;;;;4996236;28;20083;-75
2022/08/11 04:37:33;;;;;;;3.40;1.70;;;14.30;99.90;;;;;;4994503;28;20043;-76
2022/08/11 04:40:04;;;;;;;0.88;0.80;;;14.30;99.90;;;;;;4997978;28;20097;-75
2022/08/11 04:43:19;;;;;;;1.27;1.00;;;14.40;99.90;;;;;;5000543;28;20054;-75
2022/08/11 04:45:55;;;;;;;1.30;1.00;;;14.40;99.90;;;;;;5001979;28;20612;-74
2022/08/11 05:01:39;;;;;;;0.70;0.70;;;14.70;99.90;;;;;;4997672;28;20117;-75
2022/08/11 05:07:48;;;;;;;1.83;1.20;;;14.90;99.90;;;;;;5003346;28;20329;-74
2022/08/11 05:10:52;;;;;;;2.45;1.25;;;15.00;99.90;;;;;;4999153;28;20034;-75
2022/08/11 05:36:26;;;;;;;1.55;1.20;;;16.00;99.90;;;;;;4994455;28;20056;-74
2022/08/11 05:58:37;;;;;;;2.47;1.73;;;17.00;99.90;;;;;;4992617;28;20534;-76
2022/08/11 06:01:04;;;;;;;1.40;1.30;;;17.10;99.90;;;;;;4993005;28;20687;-75
2022/08/11 06:04:12;;;;;;;1.58;1.40;;;17.20;99.90;;;;;;4994195;28;20034;-75
2022/08/11 06:06:19;;;;;;;5.45;1.48;;;17.30;99.90;;;;;;4998532;28;20192;-75
2022/08/11 06:08:45;;;;;;;3.42;1.60;;;17.40;99.90;;;;;;4994381;28;20044;-73
2022/08/11 06:11:11;;;;;;;1.85;1.40;;;17.50;99.90;;;;;;4994168;28;20030;-75
2022/08/11 06:13:43;;;;;;;1.83;1.42;;;17.60;99.90;;;;;;5003936;28;20022;-76
2022/08/11 06:16:10;;;;;;;3.45;2.28;;;17.70;99.90;;;;;;4998070;28;20036;-76
2022/08/11 06:18:36;;;;;;;2.47;1.58;;;17.80;99.90;;;;;;5000936;28;20030;-76
2022/08/11 06:21:10;;;;;;;2.15;1.50;;;17.90;99.90;;;;;;5008279;28;20034;-75
2022/08/11 06:23:36;;;;;;;2.42;1.67;;;18.00;99.90;;;;;;5001777;28;20063;-76
2022/08/11 06:26:08;;;;;;;3.58;1.80;;;18.00;99.90;;;;;;5000663;28;20040;-76
2022/08/11 06:28:36;;;;;;;2.55;1.88;;;18.10;99.90;;;;;;5007918;28;20080;-75
2022/08/11 06:31:12;;;;;;;2.08;1.40;;;18.30;99.90;;;;;;5004940;28;20032;-76
2022/08/11 06:34:07;;;;;;;4.28;1.88;;;18.40;99.90;;;;;;5008328;28;20029;-76
2022/08/11 06:36:54;;;;;;;3.58;1.75;;;18.50;99.90;;;;;;5010067;28;20022;-76
2022/08/11 06:39:47;;;;;;;4.35;2.17;;;18.60;99.90;;;;;;5001924;28;20393;-76
2022/08/11 06:42:27;;;;;;;5.22;2.50;;;18.80;99.90;;;;;;5008063;28;20044;-75
2022/08/11 06:45:29;;;;;;;2.53;2.00;;;18.90;99.60;;;;;;5008807;28;20211;-76
2022/08/11 06:47:55;;;;;;;;;;;19.00;99.20;;;;;;5002361;28;20022;-76
2022/08/11 06:53:09;;;;;;;2.13;1.67;;;19.50;94.40;;;;;;5006726;28;20045;-75
2022/08/11 07:01:14;;;;;;;1.77;1.38;;;20.10;92.00;;;;;;5001718;28;20448;-85
2022/08/11 07:03:47;;;;;;;3.60;2.05;;;20.10;92.70;;;;;;5009114;28;20040;-74
2022/08/11 07:06:39;;;;;;;2.58;2.10;;;20.20;92.40;;;;;;5007115;28;20044;-78
2022/08/11 07:15:43;;;;;;;2.22;1.50;;;20.50;88.40;;;;;;5000008;28;20393;-77
2022/08/11 07:30:07;;;;;;;2.38;1.63;;;21.10;86.80;;;;;;5006047;28;20036;-81
2022/08/11 07:32:49;;;;;;;2.17;1.52;;;21.20;87.90;;;;;;5004557;28;20022;-87
2022/08/11 07:35:20;;;;;;;1.95;1.75;;;21.20;87.10;;;;;;5000405;28;20026;-79
2022/08/11 07:37:54;;;;;;;2.03;1.35;;;21.30;85.00;;;;;;4998647;28;20030;-79
2022/08/11 07:40:24;;;;;;;1.58;1.42;;;21.40;86.50;;;;;;5004408;28;20055;-77
2022/08/11 07:42:52;;;;;;;3.10;1.55;;;21.40;85.80;;;;;;5003739;28;20117;-78
2022/08/11 07:53:33;;;;;;;2.38;1.77;;;21.70;84.70;;;;;;5000538;28;20479;-77
2022/08/11 07:56:00;;;;;;;2.72;2.03;;;21.90;83.10;;;;;;5001727;28;20045;-78
2022/08/11 08:17:56;;;;;;;1.95;1.38;;;22.10;80.90;;;;;;5000041;28;20095;-77
2022/08/11 08:20:29;;;;;;;3.25;1.65;;;22.20;76.90;;;;;;5001382;28;20135;-79
2022/08/11 08:23:01;;;;;;;2.63;1.83;;;22.20;78.30;;;;;;4993669;28;20117;-79
2022/08/11 08:25:30;;;;;;;;;;;22.20;79.00;;;;;;4999649;28;20025;-79
2022/08/11 08:27:58;;;;;;;2.05;1.35;;;22.30;78.90;;;;;;4999924;28;19921;-77
2022/08/11 08:33:26;;;;;;;1.75;1.52;;;22.10;79.90;;;;;;5005582;28;20509;-76
2022/08/11 08:36:10;;;;;;;1.52;1.40;;;22.10;80.10;;;;;;5007856;28;20033;-75
2022/08/11 08:38:40;;;;;;;2.25;1.60;;;22.00;80.50;;;;;;5001808;28;20109;-77
2022/08/11 08:41:07;;;;;;;2.73;1.70;;;22.00;80.20;;;;;;5007559;28;20057;-75
2022/08/11 08:43:35;;;;;;;2.70;1.67;;;22.20;81.80;;;;;;5001906;28;20037;-77
2022/08/11 08:46:03;;;;;;;2.17;1.23;;;22.60;77.50;;;;;;5007285;28;20026;-77
2022/08/11 08:48:30;;;;;;;2.45;1.55;;;22.90;76.90;;;;;;5003486;28;20144;-76
2022/08/11 08:53:52;;;;;;;2.20;1.80;;;22.80;75.40;;;;;;5000666;28;20049;-77
2022/08/11 08:56:23;;;;;;;1.83;1.48;;;23.00;73.50;;;;;;5004938;28;20042;-75
2022/08/11 08:58:49;;;;;;;3.17;1.42;;;23.00;74.10;;;;;;5004077;28;20181;-76
2022/08/11 09:01:19;;;;;;;1.73;1.60;;;23.10;73.10;;;;;;4999036;28;20030;-77
2022/08/11 09:03:44;;;;;;;1.95;1.65;;;23.60;72.60;;;;;;5002859;28;20026;-76
2022/08/11 09:06:13;;;;;;;1.83;1.40;;;23.30;72.90;;;;;;5004127;28;20034;-76
2022/08/11 09:08:39;;;;;;;2.50;1.63;;;23.50;74.50;;;;;;5004147;28;21714;-78
2022/08/11 09:13:50;;;;;;;3.00;1.85;;;23.90;70.80;;;;;;5003132;28;20037;-76
2022/08/11 09:16:17;;;;;;;1.70;1.40;;;24.00;68.30;;;;;;5001887;28;20033;-75
2022/08/11 09:18:43;;;;;;;3.70;1.92;;;24.00;68.80;;;;;;5005452;28;20029;-77
2022/08/11 09:21:14;;;;;;;2.83;1.55;;;23.80;69.30;;;;;;5012707;28;20022;-75
2022/08/11 09:29:10;;;;;;;2.30;1.52;;;24.20;67.10;;;;;;5007585;28;20388;-81
2022/08/11 09:31:36;;;;;;;2.40;1.60;;;24.50;66.70;;;;;;5006280;28;20037;-74
2022/08/11 09:34:02;;;;;;;1.55;1.40;;;24.70;63.60;;;;;;5008443;28;20026;-73
2022/08/11 09:42:00;;;;;;;2.00;1.40;;;24.70;64.30;;;;;;5000739;28;20389;-74
2022/08/11 09:47:14;;;;;;;2.08;1.50;;;24.30;66.10;;;;;;5004020;28;20091;-75
2022/08/11 09:49:42;;;;;;;2.20;1.73;;;23.90;67.70;;;;;;5003634;28;20099;-75
2022/08/11 09:52:08;;;;;;;1.42;1.33;;;24.50;64.30;;;;;;5002669;28;20033;-76
2022/08/11 09:54:34;;;;;;;2.60;1.77;;;24.30;65.50;;;;;;5004669;28;20037;-74
2022/08/11 09:59:53;;;;;;;4.57;1.70;;;23.90;66.40;;;;;;5005262;28;20072;-75
2022/08/11 10:02:26;;;;;;;1.80;1.60;;;23.60;65.70;;;;;;5006775;28;20022;-76
2022/08/11 10:07:00;;;;;;;1.50;1.40;;;23.80;65.70;;;;;;5005917;28;20511;-75
2022/08/11 10:07:49;;;;;;;1.45;1.35;;;23.60;67.10;;;;;;4999209;28;20045;-74
2022/08/11 10:10:16;;;;;;;2.43;1.77;;;23.50;67.40;;;;;;5003921;28;20028;-77
2022/08/11 10:12:49;;;;;;;3.60;1.80;;;23.50;67.20;;;;;;5004555;28;20040;-75
2022/08/11 10:15:33;;;;;;;2.35;1.48;;;23.40;67.80;;;;;;4999888;28;20036;-75
2022/08/11 10:21:01;;;;;;;1.55;1.42;;;23.60;67.90;;;;;;4999620;28;20045;-76
2022/08/11 10:33:58;;;;;;;1.30;1.20;;;23.60;67.00;;;;;;4997510;28;20126;-75
2022/08/11 10:34:36;;;;;;;1.30;1.20;;;24.50;64.40;;;;;;5004816;28;20539;-73
2022/08/11 10:37:02;;;;;;;1.52;1.42;;;25.10;61.20;;;;;;5002509;28;20662;-74
2022/08/11 10:39:28;;;;;;;1.90;1.60;;;25.50;57.50;;;;;;5006397;28;20022;-74
2022/08/11 10:44:49;;;;;;;1.60;1.42;;;25.40;59.60;;;;;;5002589;28;20033;-76
2022/08/11 10:47:34;;;;;;;2.42;1.98;;;24.60;62.20;;;;;;5002447;28;20113;-76
2022/08/11 11:01:07;;;;;;;3.15;1.55;;;23.80;65.30;;;;;;5000006;28;20068;-75
2022/08/11 11:03:34;;;;;;;1.45;1.35;;;24.10;64.80;;;;;;5005257;28;20054;-77
2022/08/11 11:06:08;;;;;;;1.67;1.30;;;23.90;65.60;;;;;;5009605;28;20556;-77
2022/08/11 11:08:52;;;;;;;1.80;1.65;;;23.80;66.10;;;;;;5003253;28;20588;-76
2022/08/11 11:11:20;;;;;;;1.42;1.30;;;23.80;66.80;;;;;;4997386;28;20405;-76
2022/08/11 11:19:24;;;;;;;1.42;1.30;;;24.90;63.30;;;;;;5002181;28;20041;-74
2022/08/11 11:22:36;;;;;;;2.50;1.88;;;24.60;63.40;;;;;;5011405;28;20107;-77
2022/08/11 11:24:52;;;;;;;1.83;1.55;;;24.90;62.10;;;;;;4999837;28;20113;-78
2022/08/11 11:27:44;;;;;;;1.80;1.67;;;25.10;62.20;;;;;;4999184;28;20492;-75
2022/08/11 11:30:15;;;;;;;2.38;1.55;;;24.70;62.40;;;;;;4995438;28;20042;-78
2022/08/11 11:33:17;;;;;;;3.65;1.40;;;25.00;62.60;;;;;;5007531;28;20037;-76
2022/08/11 11:36:06;;;;;;;2.33;1.50;;;25.20;61.10;;;;;;5004285;28;20030;-76
2022/08/11 11:38:33;;;;;;;1.58;1.42;;;25.00;61.10;;;;;;5002464;28;20045;-74
2022/08/11 11:43:45;;;;;;;2.17;1.65;;;24.80;60.90;;;;;;4997959;28;20041;-77
2022/08/11 11:46:12;;;;;;;1.98;1.60;;;25.50;60.00;;;;;;5001728;28;20049;-76
2022/08/11 11:48:40;;;;;;;2.08;1.48;;;27.30;53.80;;;;;;5006182;28;20050;-76
2022/08/11 11:51:06;;;;;;;1.95;1.40;;;28.40;54.50;;;;;;5000474;28;20030;-77
2022/08/11 11:53:33;;;;;;;1.67;1.30;;;27.30;54.80;;;;;;5005860;28;20049;-76
2022/08/11 11:55:59;;;;;;;1.73;1.42;;;26.90;55.20;;;;;;5004405;28;20042;-77
2022/08/11 12:01:15;;;;;;;2.03;1.50;;;26.50;56.40;;;;;;5008552;28;20080;-76
2022/08/11 12:03:42;;;;;;;1.40;1.30;;;26.50;55.80;;;;;;5006635;28;20537;-76
2022/08/11 12:06:11;;;;;;;3.00;1.98;;;26.20;56.50;;;;;;5002584;28;20658;-76
2022/08/11 12:08:37;;;;;;;1.77;1.30;;;26.50;56.20;;;;;;4999058;28;20026;-77
2022/08/11 12:13:52;;;;;;;1.60;1.50;;;25.70;56.20;;;;;;4996624;28;20143;-74
2022/08/11 12:16:20;;;;;;;3.80;1.30;;;25.20;57.60;;;;;;4993272;28;20044;-73
2022/08/11 12:18:48;;;;;;;1.58;1.48;;;24.90;58.50;;;;;;4997238;28;20469;-75
2022/08/11 12:21:15;;;;;;;1.45;1.30;;;25.10;58.40;;;;;;4997262;28;20057;-75
2022/08/11 12:29:13;;;;;;;2.95;1.48;;;24.50;60.40;;;;;;5006643;28;20065;-75
2022/08/11 12:31:40;;;;;;;1.60;1.42;;;24.70;60.60;;;;;;5000099;28;20049;-74
2022/08/11 12:34:09;;;;;;;1.70;1.60;;;24.90;59.60;;;;;;5005872;28;20049;-76
2022/08/11 12:36:41;;;;;;;1.33;1.23;;;24.60;60.00;;;;;;5012608;28;20962;-78
2022/08/11 12:39:17;;;;;;;1.63;1.38;;;24.70;59.90;;;;;;5002945;28;20036;-78
2022/08/11 12:47:18;;;;;;;1.55;1.30;;;25.30;58.90;;;;;;5000375;28;20037;-76
2022/08/11 12:52:44;;;;;;;1.50;1.40;;;26.70;54.00;;;;;;5002507;28;20448;-76
2022/08/11 12:58:16;;;;;;;2.85;1.50;;;28.00;52.50;;;;;;4976865;28;20034;-78
2022/08/11 13:06:13;;;;;;;1.90;1.77;;;27.20;55.20;;;;;;5004959;28;20099;-75
2022/08/11 13:08:39;;;;;;;3.28;1.95;;;26.60;56.10;;;;;;5003325;28;20109;-77
2022/08/11 13:13:55;;;;;;;1.50;1.35;;;30.00;47.30;;;;;;4992854;28;20040;-77
2022/08/11 13:16:29;;;;;;;2.70;2.07;;;32.20;45.10;;;;;;4996958;28;20038;-74
2022/08/11 13:18:57;;;;;;;3.45;2.30;;;28.60;51.20;;;;;;5001604;28;20485;-75
2022/08/11 13:21:23;;;;;;;5.15;2.30;;;28.40;52.30;;;;;;5005890;28;20152;-79
2022/08/11 13:23:51;;;;;;;1.67;1.58;;;;;;;;;;5005481;28;20026;-78
2022/08/11 13:26:17;;;;;;;2.30;1.77;;;26.70;55.30;;;;;;5007550;28;20030;-78
2022/08/11 13:28:45;;;;;;;4.28;1.70;;;26.50;55.90;;;;;;5006465;28;20058;-77
2022/08/11 13:31:11;;;;;;;1.63;1.52;;;26.80;55.40;;;;;;5000907;28;20057;-76
2022/08/11 13:33:50;;;;;;;2.97;1.80;;;27.20;55.20;;;;;;5010022;28;20469;-76
2022/08/11 13:36:21;;;;;;;1.38;1.27;;;27.20;55.00;;;;;;5007101;28;20108;-76
2022/08/11 13:38:47;;;;;;;3.30;2.10;;;27.30;54.50;;;;;;4992605;28;20031;-75
2022/08/11 13:43:58;;;;;;;2.33;1.58;;;27.10;55.40;;;;;;5009266;28;20036;-76
2022/08/11 13:46:26;;;;;;;1.73;1.63;;;27.20;55.20;;;;;;5005677;28;20034;-75
2022/08/11 13:48:54;;;;;;;1.40;1.30;;;27.70;54.60;;;;;;4999060;28;20030;-75
2022/08/11 13:51:31;;;;;;;1.92;1.58;;;27.90;53.80;;;;;;5002198;28;20030;-74
2022/08/11 13:54:09;;;;;;;2.35;1.55;;;28.00;53.60;;;;;;5008808;28;20736;-74
2022/08/11 13:56:38;;;;;;;2.25;1.48;;;27.50;54.40;;;;;;5005727;28;20052;-72
2022/08/11 13:59:05;;;;;;;1.80;1.30;;;28.10;53.60;;;;;;5008821;28;20443;-83
2022/08/11 14:01:33;;;;;;;1.50;1.40;;;31.00;47.70;;;;;;5000926;28;20068;-79
2022/08/11 14:04:08;;;;;;;1.67;1.33;;;35.00;39.90;;;;;;5005142;28;20026;-78
2022/08/11 14:06:37;;;;;;;1.48;1.25;;;36.50;38.70;;;;;;4993875;28;20504;-77
2022/08/11 14:09:06;;;;;;;1.65;1.55;;;34.30;40.20;;;;;;5001502;28;20495;-79
2022/08/11 14:14:24;;;;;;;1.67;1.58;;;29.40;49.60;;;;;;5000530;28;20037;-78
2022/08/11 14:16:51;;;;;;;;;;;27.80;51.80;;;;;;5000757;28;20045;-78
2022/08/11 14:19:21;;;;;;;2.47;1.70;;;28.00;51.30;;;;;;5002956;28;19909;-78
2022/08/11 14:22:06;;;;;;;2.47;1.50;;;27.80;51.50;;;;;;5000125;28;20519;-78
2022/08/11 14:24:40;;;;;;;1.65;1.33;;;28.90;50.50;;;;;;5003123;28;20034;-78
2022/08/11 14:27:11;;;;;;;1.35;1.25;;;28.50;50.30;;;;;;4997915;28;20022;-78
2022/08/11 14:29:39;;;;;;;1.98;1.40;;;27.80;51.40;;;;;;4995038;28;20030;-78
2022/08/11 14:32:07;;;;;;;1.23;1.10;;;27.80;51.00;;;;;;4995792;28;20038;-78
2022/08/11 14:34:37;;;;;;;1.38;1.27;;;28.20;50.30;;;;;;5004892;28;20697;-79
2022/08/11 14:37:09;;;;;;;2.38;1.48;;;28.40;50.10;;;;;;5001265;28;20060;-79
2022/08/11 14:39:42;;;;;;;1.45;1.25;;;27.80;50.10;;;;;;5003294;28;20024;-79
2022/08/11 14:47:50;;;;;;;1.35;1.17;;;27.90;50.30;;;;;;4950751;28;20050;-78
2022/08/11 14:50:22;;;;;;;1.63;1.13;;;27.70;50.50;;;;;;5001445;28;20032;-78
2022/08/11 14:52:59;;;;;;;1.40;1.17;;;30.80;45.60;;;;;;4993916;28;20037;-78
2022/08/11 14:58:22;;;;;;;1.30;1.00;;;27.80;50.40;;;;;;5005899;28;20037;-78
2022/08/11 15:00:57;;;;;;;1.70;1.35;;;27.60;50.70;;;;;;4995314;28;20104;-79
2022/08/11 15:03:24;;;;;;;1.50;1.27;;;27.80;49.90;;;;;;4997554;28;20105;-78
2022/08/11 15:05:52;;;;;;;1.52;1.10;;;28.10;49.90;;;;;;4987200;28;20034;-79
2022/08/11 15:08:19;;;;;;;1.60;1.02;;;28.50;49.00;;;;;;4998711;28;20030;-79
2022/08/11 15:10:46;;;;;;;1.50;1.40;;;28.30;49.30;;;;;;4999898;28;20041;-79
2022/08/11 15:13:17;;;;;;;1.08;1.08;;;29.50;47.70;;;;;;4998661;28;20032;-78
2022/08/11 15:18:28;;;;;;;2.95;0.90;;;29.50;45.20;;;;;;4995184;28;20029;-84
2022/08/11 15:37:44;;;;;;;1.08;0.98;;;28.20;48.90;;;;;;4999196;28;20061;-76
2022/08/11 15:46:11;;;;;;;0.85;0.82;;;32.00;44.50;;;;;;5001466;28;20036;-72
2022/08/11 15:49:00;;;;;;;0.82;0.82;;;31.40;44.00;;;;;;5003019;28;20041;-75
2022/08/11 15:51:48;;;;;;;1.00;0.77;;;29.70;46.10;;;;;;4998490;28;20033;-74
2022/08/11 15:54:17;;;;;;;1.90;0.93;;;29.50;47.30;;;;;;4999972;28;20038;-74
2022/08/11 15:56:48;;;;;;;1.30;1.02;;;29.50;48.00;;;;;;4991757;28;20068;-74
2022/08/11 16:05:11;;;;;;;0.63;0.63;;;30.40;46.00;;;;;;4982534;28;20448;-75
2022/08/11 16:07:38;;;;;;;1.02;0.93;;;30.30;46.00;;;;;;4990645;28;20127;-76
2022/08/11 16:10:14;;;;;;;0.65;0.65;;;29.00;48.80;;;;;;4987657;28;20034;-72
2022/08/11 16:18:45;;;;;;;1.98;1.00;;;28.50;48.60;;;;;;5002694;28;20044;-75
2022/08/11 16:21:24;;;;;;;0.82;0.82;;;28.00;51.90;;;;;;5003519;28;20062;-71
2022/08/11 16:23:53;;;;;;;0.77;0.77;;;26.80;54.20;;;;;;4998593;28;20108;-73
2022/08/11 16:26:22;;;;;;;1.58;1.20;;;27.00;53.70;;;;;;5003900;28;20420;-73
2022/08/11 16:28:54;;;;;;;0.85;0.85;;;26.20;55.50;;;;;;4994185;28;20022;-73
2022/08/11 16:31:24;;;;;;;2.78;0.90;;;25.60;56.20;;;;;;5002610;28;20033;-73
2022/08/11 16:33:51;;;;;;;0.68;0.60;;;25.90;55.80;;;;;;5004030;28;20030;-73
2022/08/11 16:39:04;;;;;;;2.45;1.02;;;25.80;57.10;;;;;;5005202;28;20035;-74
2022/08/11 16:47:04;;;;;;;1.05;0.82;;;25.20;57.80;;;;;;4996030;28;20534;-78
2022/08/11 16:49:37;;;;;;;1.83;1.33;;;25.20;57.00;;;;;;5000435;28;20034;-74
2022/08/11 16:52:06;;;;;;;0.80;0.80;;;25.10;58.40;;;;;;5000731;28;20034;-74
2022/08/11 16:54:33;;;;;;;0.95;0.77;;;24.90;57.00;;;;;;4998257;28;20018;-76
2022/08/11 17:00:05;;;;;;;0.80;0.63;;;25.00;57.30;;;;;;5000862;28;20057;-76
2022/08/11 17:14:50;;;;;;;0.68;0.68;;;25.00;58.80;;;;;;4991579;28;20048;-81
2022/08/11 17:17:24;;;;;;;1.38;0.80;;;25.70;57.00;;;;;;4994435;28;20998;-79
2022/08/11 17:19:57;;;;;;;0.80;0.70;;;25.40;57.60;;;;;;4997122;28;20357;-79
2022/08/11 17:25:10;;;;;;;0.90;0.60;;;24.80;57.80;;;;;;5003142;28;20782;-78
2022/08/11 17:27:37;;;;;;;1.00;0.90;;;24.50;56.80;;;;;;4993920;28;20034;-79
2022/08/11 17:30:06;;;;;;;4.03;0.80;;;24.50;56.90;;;;;;4990985;28;20037;-79
2022/08/11 17:35:31;;;;;;;1.17;0.80;;;24.50;57.40;;;;;;4993026;28;20072;-80
2022/08/11 17:38:15;;;;;;;1.02;0.77;;;24.30;58.30;;;;;;5001791;28;20027;-79
2022/08/11 17:49:01;;;;;;;0.95;0.95;;;24.50;54.50;;;;;;4991485;28;20096;-75
2022/08/11 17:59:51;;;;;;;0.50;0.50;;;24.00;58.60;;;;;;4993674;28;20193;-76
2022/08/11 18:05:17;;;;;;;1.20;0.90;;;23.80;59.40;;;;;;4993765;28;20203;-78
